createdAt,value
2022-09-03T00:00:10.947Z,99071.00
2022-09-03T00:01:51.885Z,99074.00
2022-09-03T00:03:33.145Z,99072.00
2022-09-03T00:05:14.579Z,99073.00
2022-09-03T00:06:57.110Z,99071.00
2022-09-03T00:08:40.734Z,99077.00
2022-09-03T00:10:23.706Z,99067.00
2022-09-03T00:12:10.856Z,99074.00
2022-09-03T00:13:52.300Z,99070.00
2022-09-03T00:15:26.152Z,99074.00
2022-09-03T00:17:06.771Z,99070.00
2022-09-03T00:18:49.814Z,99082.00
2022-09-03T00:20:32.435Z,99074.00
2022-09-03T00:22:14.771Z,99067.00
2022-09-03T00:23:51.529Z,99070.00
2022-09-03T00:25:35.004Z,99065.00
2022-09-03T00:27:19.678Z,99064.00
2022-09-03T00:28:59.967Z,99064.00
2022-09-03T00:30:35.937Z,99065.00
2022-09-03T00:32:19.554Z,99065.00
2022-09-03T00:33:59.251Z,99061.00
2022-09-03T00:35:42.000Z,99060.00
2022-09-03T00:37:15.982Z,99066.00
2022-09-03T00:38:49.600Z,99067.00
2022-09-03T00:40:44.731Z,99067.00
2022-09-03T00:42:41.028Z,99074.00
2022-09-03T00:44:45.350Z,99064.00
2022-09-03T00:46:28.038Z,99065.00
2022-09-03T00:48:17.594Z,99071.00
2022-09-03T00:50:05.557Z,99077.00
2022-09-03T00:51:51.873Z,99063.00
2022-09-03T00:53:36.304Z,99065.00
2022-09-03T00:55:24.976Z,99066.00
2022-09-03T00:57:17.363Z,99071.00
2022-09-03T00:59:16.463Z,99067.00
2022-09-03T01:00:55.808Z,99074.00
2022-09-03T01:02:53.077Z,99067.00
2022-09-03T01:04:49.507Z,99066.00
2022-09-03T01:06:37.702Z,99067.00
2022-09-03T01:08:37.019Z,99062.00
2022-09-03T01:10:27.521Z,99062.00
2022-09-03T01:12:15.573Z,99069.00
2022-09-03T01:14:06.991Z,99073.00
2022-09-03T01:15:59.404Z,99073.00
2022-09-03T01:17:51.045Z,99078.00
2022-09-03T01:20:09.243Z,99074.00
2022-09-03T01:22:21.082Z,99067.00
2022-09-03T01:24:29.851Z,99076.00
2022-09-03T01:26:24.911Z,99072.00
2022-09-03T01:28:20.088Z,99063.00
2022-09-03T01:30:06.205Z,99062.00
2022-09-03T01:31:51.760Z,99066.00
2022-09-03T01:33:35.015Z,99060.00
2022-09-03T01:35:20.629Z,99063.00
2022-09-03T01:37:08.963Z,99063.00
2022-09-03T01:38:52.355Z,99066.00
2022-09-03T01:40:39.475Z,99056.00
2022-09-03T01:42:28.487Z,99057.00
2022-09-03T01:44:16.710Z,99061.00
2022-09-03T01:46:00.526Z,99056.00
2022-09-03T01:47:51.427Z,99063.00
2022-09-03T01:49:35.354Z,99063.00
2022-09-03T01:51:20.936Z,99060.00
2022-09-03T01:53:03.107Z,99060.00
2022-09-03T01:55:07.084Z,99067.00
2022-09-03T01:57:19.133Z,99060.00
2022-09-03T01:59:21.066Z,99051.00
2022-09-03T02:01:04.078Z,99054.00
2022-09-03T02:02:39.061Z,99052.00
2022-09-03T02:04:24.392Z,99043.00
2022-09-03T02:05:58.673Z,99053.00
2022-09-03T02:07:34.871Z,99042.00
2022-09-03T02:09:08.224Z,99055.00
2022-09-03T02:10:46.503Z,99044.00
2022-09-03T02:12:21.784Z,99042.00
2022-09-03T02:13:59.830Z,99055.00
2022-09-03T02:15:37.586Z,99049.00
2022-09-03T02:17:12.563Z,99049.00
2022-09-03T02:18:52.043Z,99050.00
2022-09-03T02:20:29.708Z,99052.00
2022-09-03T02:22:03.187Z,99056.00
2022-09-03T02:23:36.959Z,99051.00
2022-09-03T02:25:10.989Z,99049.00
2022-09-03T02:26:44.717Z,99051.00
2022-09-03T02:28:18.611Z,99053.00
2022-09-03T02:29:51.508Z,99049.00
2022-09-03T02:31:27.619Z,99053.00
2022-09-03T02:33:01.923Z,99048.00
2022-09-03T02:34:35.418Z,99051.00
2022-09-03T02:36:12.704Z,99050.00
2022-09-03T02:37:46.535Z,99044.00
2022-09-03T02:39:19.930Z,99050.00
2022-09-03T02:40:54.330Z,99055.00
2022-09-03T02:42:27.974Z,99051.00
2022-09-03T02:44:08.342Z,99047.00
2022-09-03T02:45:48.691Z,99049.00
2022-09-03T02:47:30.700Z,99048.00
2022-09-03T02:49:04.139Z,99051.00
2022-09-03T02:50:42.636Z,99054.00
2022-09-03T02:52:17.084Z,99051.00
2022-09-03T02:53:49.731Z,99041.00
2022-09-03T02:55:24.254Z,99048.00
2022-09-03T02:56:57.664Z,99052.00
2022-09-03T02:58:32.501Z,99052.00
2022-09-03T03:00:43.559Z,99055.00
2022-09-03T03:02:16.943Z,99061.00
2022-09-03T03:03:52.186Z,99047.00
2022-09-03T03:05:36.543Z,99050.00
2022-09-03T03:07:10.287Z,99048.00
2022-09-03T03:08:44.304Z,99053.00
2022-09-03T03:10:17.938Z,99047.00
2022-09-03T03:11:51.243Z,99050.00
2022-09-03T03:13:24.606Z,99054.00
2022-09-03T03:14:58.203Z,99053.00
2022-09-03T03:16:32.007Z,99057.00
2022-09-03T03:18:05.951Z,99057.00
2022-09-03T03:19:41.195Z,99052.00
2022-09-03T03:21:18.763Z,99058.00
2022-09-03T03:22:51.765Z,99050.00
2022-09-03T03:24:25.232Z,99044.00
2022-09-03T03:26:03.426Z,99049.00
2022-09-03T03:27:42.482Z,99036.00
2022-09-03T03:29:18.453Z,99053.00
2022-09-03T03:30:52.833Z,99047.00
2022-09-03T03:32:26.359Z,99038.00
2022-09-03T03:34:02.394Z,99031.00
2022-09-03T03:35:38.089Z,99039.00
2022-09-03T03:37:11.628Z,99031.00
2022-09-03T03:38:46.499Z,99036.00
2022-09-03T03:40:20.469Z,99031.00
2022-09-03T03:41:54.032Z,99034.00
2022-09-03T03:43:27.383Z,99034.00
2022-09-03T03:45:02.477Z,99036.00
2022-09-03T03:46:39.177Z,99035.00
2022-09-03T03:48:12.853Z,99040.00
2022-09-03T03:49:46.230Z,99035.00
2022-09-03T03:51:21.486Z,99029.00
2022-09-03T03:52:54.871Z,99032.00
2022-09-03T03:54:28.160Z,99027.00
2022-09-03T03:56:03.926Z,99024.00
2022-09-03T03:57:37.611Z,99024.00
2022-09-03T03:59:11.178Z,99019.00
2022-09-03T04:00:45.159Z,99017.00
2022-09-03T04:02:19.939Z,99019.00
2022-09-03T04:03:56.587Z,99016.00
2022-09-03T04:05:33.679Z,99011.00
2022-09-03T04:07:09.749Z,99017.00
2022-09-03T04:08:46.736Z,99015.00
2022-09-03T04:10:20.203Z,99011.00
2022-09-03T04:11:53.584Z,99006.00
2022-09-03T04:13:31.559Z,99011.00
2022-09-03T04:15:06.763Z,99009.00
2022-09-03T04:16:40.234Z,99016.00
2022-09-03T04:18:14.383Z,99009.00
2022-09-03T04:19:48.691Z,99018.00
2022-09-03T04:21:25.418Z,99023.00
2022-09-03T04:23:05.338Z,99011.00
2022-09-03T04:24:38.999Z,99017.00
2022-09-03T04:26:15.897Z,99014.00
2022-09-03T04:27:49.615Z,99010.00
2022-09-03T04:29:23.103Z,99012.00
2022-09-03T04:31:01.001Z,99007.00
2022-09-03T04:32:52.458Z,99003.00
2022-09-03T04:34:26.383Z,99009.00
2022-09-03T04:36:11.967Z,99004.00
2022-09-03T04:37:44.389Z,99002.00
2022-09-03T04:39:19.085Z,99002.00
2022-09-03T04:40:53.995Z,99007.00
2022-09-03T04:42:27.258Z,99009.00
2022-09-03T04:44:01.411Z,99002.00
2022-09-03T04:45:33.845Z,98997.00
2022-09-03T04:47:07.537Z,99001.00
2022-09-03T04:48:41.350Z,99000.00
2022-09-03T04:50:14.983Z,98999.00
2022-09-03T04:51:48.431Z,98998.00
2022-09-03T04:53:22.637Z,98999.00
2022-09-03T04:54:57.560Z,99003.00
2022-09-03T04:56:34.418Z,99000.00
2022-09-03T04:58:08.757Z,99002.00
2022-09-03T04:59:42.740Z,98997.00
2022-09-03T05:01:20.436Z,99004.00
2022-09-03T05:02:54.111Z,99000.00
2022-09-03T05:04:27.844Z,99002.00
2022-09-03T05:06:01.827Z,99003.00
2022-09-03T05:07:38.783Z,98998.00
2022-09-03T05:09:12.410Z,99009.00
2022-09-03T05:10:47.081Z,99001.00
2022-09-03T05:12:23.067Z,99005.00
2022-09-03T05:13:59.610Z,99010.00
2022-09-03T05:15:34.749Z,99009.00
2022-09-03T05:17:08.119Z,99004.00
2022-09-03T05:18:42.484Z,99004.00
2022-09-03T05:20:15.243Z,99011.00
2022-09-03T05:21:49.295Z,99014.00
2022-09-03T05:23:22.372Z,99008.00
2022-09-03T05:24:56.249Z,99012.00
2022-09-03T05:26:34.156Z,99022.00
2022-09-03T05:28:07.916Z,99006.00
2022-09-03T05:29:41.819Z,99011.00
2022-09-03T05:31:17.956Z,99018.00
2022-09-03T05:32:52.125Z,99024.00
2022-09-03T05:34:24.530Z,99012.00
2022-09-03T05:36:03.622Z,99014.00
2022-09-03T05:37:37.470Z,99012.00
2022-09-03T05:39:11.311Z,99015.00
2022-09-03T05:40:45.160Z,99012.00
2022-09-03T05:42:20.067Z,99013.00
2022-09-03T05:43:56.653Z,99012.00
2022-09-03T05:45:32.373Z,99010.00
2022-09-03T05:47:06.361Z,99004.00
2022-09-03T05:48:40.665Z,99004.00
2022-09-03T05:50:14.056Z,99000.00
2022-09-03T05:51:47.385Z,99005.00
2022-09-03T05:53:20.898Z,99003.00
2022-09-03T05:54:54.380Z,99009.00
2022-09-03T05:56:29.890Z,98997.00
2022-09-03T05:58:04.688Z,98995.00
2022-09-03T05:59:38.131Z,99000.00
2022-09-03T06:01:14.088Z,99007.00
2022-09-03T06:02:52.745Z,99007.00
2022-09-03T06:04:26.850Z,99005.00
2022-09-03T06:06:00.966Z,98999.00
2022-09-03T06:07:34.910Z,99004.00
2022-09-03T06:09:11.737Z,99010.00
2022-09-03T06:10:45.181Z,99008.00
2022-09-03T06:12:19.071Z,99006.00
2022-09-03T06:13:54.250Z,98998.00
2022-09-03T06:15:28.287Z,99002.00
2022-09-03T06:17:01.646Z,99003.00
2022-09-03T06:18:34.581Z,98998.00
2022-09-03T06:20:10.094Z,99001.00
2022-09-03T06:21:45.787Z,98997.00
2022-09-03T06:23:20.159Z,98996.00
2022-09-03T06:24:54.323Z,98998.00
2022-09-03T06:26:29.695Z,99000.00
2022-09-03T06:28:03.839Z,99005.00
2022-09-03T06:29:38.891Z,99003.00
2022-09-03T06:31:15.594Z,99003.00
2022-09-03T06:32:52.119Z,99003.00
2022-09-03T06:34:25.547Z,99001.00
2022-09-03T06:35:59.445Z,99007.00
2022-09-03T06:37:32.837Z,99012.00
2022-09-03T06:39:06.504Z,99010.00
2022-09-03T06:40:40.155Z,99001.00
2022-09-03T06:42:13.480Z,99003.00
2022-09-03T06:43:51.319Z,99006.00
2022-09-03T06:45:26.338Z,99007.00
2022-09-03T06:47:01.446Z,98993.00
2022-09-03T06:48:37.267Z,99003.00
2022-09-03T06:50:11.491Z,98992.00
2022-09-03T06:51:46.248Z,98998.00
2022-09-03T06:53:19.188Z,99002.00
2022-09-03T06:54:52.955Z,99005.00
2022-09-03T06:56:28.391Z,98998.00
2022-09-03T06:58:01.811Z,98988.00
2022-09-03T06:59:36.180Z,99001.00
2022-09-03T07:01:14.682Z,98993.00
2022-09-03T07:02:48.776Z,98991.00
2022-09-03T07:04:24.914Z,98990.00
2022-09-03T07:06:02.923Z,98993.00
2022-09-03T07:07:37.421Z,98985.00
2022-09-03T07:09:15.311Z,98987.00
2022-09-03T07:10:49.004Z,98995.00
2022-09-03T07:12:22.541Z,98980.00
2022-09-03T07:13:57.150Z,98986.00
2022-09-03T07:15:30.975Z,98983.00
2022-09-03T07:17:06.407Z,98981.00
2022-09-03T07:18:41.540Z,98979.00
2022-09-03T07:20:15.034Z,98985.00
2022-09-03T07:21:50.757Z,98981.00
2022-09-03T07:23:23.472Z,98981.00
2022-09-03T07:24:57.130Z,98991.00
2022-09-03T07:26:34.314Z,98986.00
2022-09-03T07:28:08.203Z,98991.00
2022-09-03T07:29:42.075Z,98990.00
2022-09-03T07:31:19.932Z,98999.00
2022-09-03T07:32:54.910Z,98986.00
2022-09-03T07:34:30.434Z,99001.00
2022-09-03T07:36:06.188Z,98995.00
2022-09-03T07:37:43.857Z,98987.00
2022-09-03T07:39:19.484Z,98986.00
2022-09-03T07:41:00.227Z,98985.00
2022-09-03T07:42:38.360Z,98989.00
2022-09-03T07:44:13.095Z,98981.00
2022-09-03T07:45:51.938Z,98992.00
2022-09-03T07:47:27.127Z,98982.00
2022-09-03T07:49:03.396Z,98979.00
2022-09-03T07:50:39.419Z,98978.00
2022-09-03T07:52:13.110Z,98986.00
2022-09-03T07:53:56.051Z,98971.00
2022-09-03T07:55:29.575Z,98975.00
2022-09-03T07:57:03.152Z,98981.00
2022-09-03T07:58:38.328Z,98984.00
2022-09-03T08:00:14.499Z,98983.00
2022-09-03T08:01:48.359Z,98988.00
2022-09-03T08:03:22.692Z,98983.00
2022-09-03T08:04:57.651Z,98991.00
2022-09-03T08:06:32.782Z,98990.00
2022-09-03T08:08:10.951Z,98999.00
2022-09-03T08:09:49.771Z,98996.00
2022-09-03T08:11:22.391Z,98996.00
2022-09-03T08:12:55.958Z,98993.00
2022-09-03T08:14:31.624Z,99002.00
2022-09-03T08:16:05.757Z,98992.00
2022-09-03T08:17:39.827Z,99007.00
2022-09-03T08:19:18.141Z,99003.00
2022-09-03T08:20:52.206Z,99006.00
2022-09-03T08:22:26.663Z,99002.00
2022-09-03T08:24:02.716Z,98996.00
2022-09-03T08:25:36.212Z,99010.00
2022-09-03T08:27:10.432Z,99015.00
2022-09-03T08:28:45.531Z,99011.00
2022-09-03T08:30:19.725Z,99015.00
2022-09-03T08:31:55.345Z,99015.00
2022-09-03T08:33:42.472Z,99017.00
2022-09-03T08:35:16.863Z,99015.00
2022-09-03T08:36:53.124Z,99016.00
2022-09-03T08:38:25.965Z,99008.00
2022-09-03T08:40:00.253Z,99016.00
2022-09-03T08:42:12.566Z,99007.00
2022-09-03T08:44:26.035Z,99010.00
2022-09-03T08:46:00.057Z,99015.00
2022-09-03T08:47:39.954Z,99003.00
2022-09-03T08:49:17.927Z,99012.00
2022-09-03T08:51:00.088Z,99007.00
2022-09-03T08:52:43.845Z,99003.00
2022-09-03T08:54:25.126Z,99011.00
2022-09-03T08:56:06.418Z,99009.00
2022-09-03T08:57:48.088Z,99000.00
2022-09-03T08:59:22.327Z,98998.00
2022-09-03T09:01:17.894Z,98999.00
2022-09-03T09:03:17.283Z,98990.00
2022-09-03T09:05:03.700Z,98993.00
2022-09-03T09:06:54.193Z,98998.00
2022-09-03T09:08:44.444Z,98995.00
2022-09-03T09:10:29.309Z,99004.00
2022-09-03T09:12:22.103Z,98994.00
2022-09-03T09:14:04.988Z,98996.00
2022-09-03T09:15:52.109Z,98997.00
2022-09-03T09:17:52.326Z,98994.00
2022-09-03T09:19:44.183Z,98987.00
2022-09-03T09:21:27.637Z,98993.00
2022-09-03T09:23:06.660Z,98979.00
2022-09-03T09:24:46.271Z,98982.00
2022-09-03T09:26:23.206Z,98981.00
2022-09-03T09:28:03.949Z,98981.00
2022-09-03T09:29:38.851Z,98981.00
2022-09-03T09:31:18.612Z,98983.00
2022-09-03T09:32:52.065Z,98973.00
2022-09-03T09:34:26.258Z,98973.00
2022-09-03T09:36:02.998Z,98979.00
2022-09-03T09:37:48.486Z,98992.00
2022-09-03T09:39:23.440Z,98986.00
2022-09-03T09:41:10.663Z,98988.00
2022-09-03T09:42:44.093Z,98992.00
2022-09-03T09:44:23.063Z,98982.00
2022-09-03T09:46:09.431Z,98983.00
2022-09-03T09:47:43.543Z,98985.00
2022-09-03T09:49:35.183Z,98978.00
2022-09-03T09:51:14.130Z,98994.00
2022-09-03T09:52:48.159Z,98995.00
2022-09-03T09:54:28.141Z,98994.00
2022-09-03T09:56:03.938Z,98990.00
2022-09-03T09:57:39.646Z,98989.00
2022-09-03T09:59:16.028Z,99005.00
2022-09-03T10:01:03.483Z,98981.00
2022-09-03T10:02:40.237Z,98985.00
2022-09-03T10:04:24.485Z,98992.00
2022-09-03T10:06:28.206Z,98994.00
2022-09-03T10:08:05.153Z,98994.00
2022-09-03T10:09:38.722Z,98987.00
2022-09-03T10:11:14.244Z,98989.00
2022-09-03T10:12:59.478Z,98987.00
2022-09-03T10:14:43.537Z,98992.00
2022-09-03T10:16:28.802Z,99001.00
2022-09-03T10:18:12.323Z,99005.00
2022-09-03T10:20:18.886Z,98996.00
2022-09-03T10:22:03.475Z,98996.00
2022-09-03T10:23:51.552Z,98997.00
2022-09-03T10:25:30.341Z,99000.00
2022-09-03T10:27:05.374Z,99012.00
2022-09-03T10:28:42.280Z,98997.00
2022-09-03T10:30:16.490Z,98996.00
2022-09-03T10:32:23.670Z,99002.00
2022-09-03T10:34:05.799Z,99009.00
2022-09-03T10:35:47.178Z,99009.00
2022-09-03T10:37:30.172Z,99003.00
2022-09-03T10:39:16.039Z,99010.00
2022-09-03T10:41:04.234Z,99011.00
2022-09-03T10:42:47.711Z,99010.00
2022-09-03T10:44:49.379Z,99003.00
2022-09-03T10:46:30.313Z,99010.00
2022-09-03T10:48:29.393Z,99027.00
2022-09-03T10:50:17.047Z,99012.00
2022-09-03T10:52:03.268Z,99010.00
2022-09-03T10:54:28.950Z,99005.00
2022-09-03T10:56:10.020Z,99015.00
2022-09-03T10:57:54.405Z,99017.00
2022-09-03T10:59:43.311Z,99014.00
2022-09-03T11:01:34.013Z,99014.00
2022-09-03T11:03:45.563Z,99015.00
2022-09-03T11:05:24.942Z,99018.00
2022-09-03T11:07:05.239Z,99022.00
2022-09-03T11:08:45.804Z,99027.00
2022-09-03T11:10:24.974Z,99034.00
2022-09-03T11:12:12.997Z,99024.00
2022-09-03T11:13:54.005Z,99028.00
2022-09-03T11:15:33.722Z,99026.00
2022-09-03T11:17:14.948Z,99039.00
2022-09-03T11:18:52.895Z,99034.00
2022-09-03T11:20:27.975Z,99034.00
2022-09-03T11:22:02.733Z,99034.00
2022-09-03T11:23:44.182Z,99038.00
2022-09-03T11:25:23.766Z,99032.00
2022-09-03T11:27:12.243Z,99039.00
2022-09-03T11:28:58.284Z,99040.00
2022-09-03T11:30:49.636Z,99042.00
2022-09-03T11:32:41.687Z,99040.00
2022-09-03T11:34:31.924Z,99034.00
2022-09-03T11:36:08.755Z,99034.00
2022-09-03T11:37:55.767Z,99029.00
2022-09-03T11:39:42.933Z,99032.00
2022-09-03T11:41:26.941Z,99031.00
2022-09-03T11:43:13.687Z,99020.00
2022-09-03T11:44:52.637Z,99022.00
2022-09-03T11:46:31.933Z,99018.00
2022-09-03T11:48:31.521Z,99021.00
2022-09-03T11:50:21.260Z,99019.00
2022-09-03T11:52:03.120Z,99019.00
2022-09-03T11:53:36.950Z,99018.00
2022-09-03T11:55:10.259Z,99005.00
2022-09-03T11:56:44.199Z,99020.00
2022-09-03T11:58:33.148Z,99021.00
2022-09-03T12:00:14.150Z,99020.00
2022-09-03T12:01:53.999Z,99018.00
2022-09-03T12:03:38.891Z,99018.00
2022-09-03T12:05:31.968Z,99021.00
2022-09-03T12:07:44.055Z,99031.00
2022-09-03T12:09:53.115Z,99029.00
2022-09-03T12:11:45.729Z,99033.00
2022-09-03T12:13:49.242Z,99039.00
2022-09-03T12:15:52.910Z,99040.00
2022-09-03T12:17:35.702Z,99035.00
2022-09-03T12:19:22.684Z,99041.00
2022-09-03T12:21:06.452Z,99040.00
2022-09-03T12:22:41.222Z,99034.00
2022-09-03T12:24:15.293Z,99038.00
2022-09-03T12:25:49.259Z,99040.00
2022-09-03T12:27:25.409Z,99044.00
2022-09-03T12:29:01.310Z,99032.00
2022-09-03T12:30:38.653Z,99036.00
2022-09-03T12:32:15.149Z,99038.00
2022-09-03T12:33:51.347Z,99043.00
2022-09-03T12:40:04.543Z,99039.00
2022-09-03T12:41:28.232Z,99043.00
2022-09-03T12:45:13.103Z,99028.00
2022-09-03T12:46:48.288Z,99035.00
2022-09-03T12:48:23.770Z,99025.00
2022-09-03T12:50:07.308Z,99029.00
2022-09-03T12:51:51.407Z,99029.00
2022-09-03T12:53:29.978Z,99029.00
2022-09-03T12:55:21.002Z,99033.00
2022-09-03T12:56:59.612Z,99023.00
2022-09-03T12:58:38.342Z,99019.00
2022-09-03T13:00:18.413Z,99024.00
2022-09-03T13:01:59.405Z,99030.00
2022-09-03T13:03:45.563Z,99026.00
2022-09-03T13:05:23.479Z,99029.00
2022-09-03T13:07:05.121Z,99029.00
2022-09-03T13:08:48.832Z,99024.00
2022-09-03T13:10:29.831Z,99020.00
2022-09-03T13:12:05.990Z,99022.00
2022-09-03T13:13:40.700Z,99017.00
2022-09-03T13:15:23.475Z,99018.00
2022-09-03T13:17:33.133Z,99019.00
2022-09-03T13:19:19.278Z,99013.00
2022-09-03T13:21:13.179Z,99008.00
2022-09-03T13:23:03.449Z,99002.00
2022-09-03T13:25:10.911Z,99002.00
2022-09-03T13:26:59.390Z,99004.00
2022-09-03T13:28:58.379Z,99006.00
2022-09-03T13:30:41.336Z,99004.00
2022-09-03T13:32:31.636Z,99007.00
2022-09-03T13:34:18.411Z,98998.00
2022-09-03T13:36:02.275Z,99001.00
2022-09-03T13:37:43.406Z,98993.00
2022-09-03T13:39:28.456Z,98988.00
2022-09-03T13:41:20.207Z,98987.00
2022-09-03T13:43:02.663Z,98989.00
2022-09-03T13:44:45.600Z,98990.00
2022-09-03T13:46:29.117Z,98982.00
2022-09-03T13:48:33.468Z,98978.00
2022-09-03T13:50:23.788Z,98989.00
2022-09-03T13:52:04.618Z,98988.00
2022-09-03T13:54:04.410Z,98987.00
2022-09-03T13:55:48.142Z,98982.00
2022-09-03T13:57:36.169Z,98971.00
2022-09-03T13:59:20.077Z,98977.00
2022-09-03T14:01:11.577Z,98974.00
2022-09-03T14:02:56.933Z,98971.00
2022-09-03T14:04:50.256Z,98969.00
2022-09-03T14:06:42.034Z,98976.00
2022-09-03T14:08:28.951Z,98975.00
2022-09-03T14:10:20.022Z,98980.00
2022-09-03T14:12:06.302Z,98981.00
2022-09-03T14:13:55.935Z,98975.00
2022-09-03T14:15:38.788Z,98978.00
2022-09-03T14:17:24.627Z,98979.00
2022-09-03T14:19:06.448Z,98983.00
2022-09-03T14:20:54.976Z,98982.00
2022-09-03T14:22:47.263Z,98983.00
2022-09-03T14:24:30.595Z,98971.00
2022-09-03T14:26:08.175Z,98985.00
2022-09-03T14:27:41.592Z,98980.00
2022-09-03T14:29:18.972Z,98986.00
2022-09-03T14:31:02.777Z,98991.00
2022-09-03T14:32:53.097Z,98983.00
2022-09-03T14:34:44.858Z,98984.00
2022-09-03T14:36:31.334Z,98992.00
2022-09-03T14:38:42.892Z,98989.00
2022-09-03T14:40:20.898Z,98993.00
2022-09-03T14:42:38.630Z,98993.00
2022-09-03T14:44:50.888Z,98994.00
2022-09-03T14:46:47.287Z,98997.00
2022-09-03T14:48:48.887Z,98993.00
2022-09-03T14:50:45.971Z,98990.00
2022-09-03T14:53:06.149Z,98986.00
2022-09-03T14:55:22.319Z,98990.00
2022-09-03T14:57:18.093Z,98990.00
2022-09-03T14:59:25.980Z,98992.00
2022-09-03T15:01:05.440Z,98988.00
2022-09-03T15:03:23.542Z,98989.00
2022-09-03T15:05:15.865Z,98983.00
2022-09-03T15:07:09.737Z,98988.00
2022-09-03T15:09:23.642Z,98997.00
2022-09-03T15:11:02.265Z,98989.00
2022-09-03T15:12:43.763Z,98992.00
2022-09-03T15:14:27.222Z,98985.00
2022-09-03T15:16:20.290Z,98988.00
2022-09-03T15:18:16.306Z,98986.00
2022-09-03T15:20:06.746Z,98992.00
2022-09-03T15:22:09.587Z,98992.00
2022-09-03T15:24:04.831Z,98992.00
2022-09-03T15:25:54.248Z,99000.00
2022-09-03T15:27:55.351Z,98996.00
2022-09-03T15:29:47.936Z,98994.00
2022-09-03T15:31:28.340Z,98998.00
2022-09-03T15:33:17.064Z,99004.00
2022-09-03T15:35:06.971Z,99006.00
2022-09-03T15:36:48.560Z,99006.00
2022-09-03T15:38:36.319Z,98999.00
2022-09-03T15:40:28.850Z,98999.00
2022-09-03T15:42:11.823Z,99003.00
2022-09-03T15:43:51.931Z,98995.00
2022-09-03T15:45:39.466Z,99002.00
2022-09-03T15:47:35.252Z,99003.00
2022-09-03T15:49:45.738Z,98994.00
2022-09-03T15:51:27.865Z,99002.00
2022-09-03T15:53:07.835Z,99003.00
2022-09-03T15:54:54.511Z,99004.00
2022-09-03T15:56:38.478Z,99003.00
2022-09-03T15:58:25.445Z,99005.00
2022-09-03T16:00:04.274Z,99012.00
2022-09-03T16:02:04.728Z,99009.00
2022-09-03T16:03:59.397Z,99019.00
2022-09-03T16:05:43.549Z,99026.00
2022-09-03T16:07:27.406Z,99022.00
2022-09-03T16:09:18.767Z,99017.00
2022-09-03T16:11:06.388Z,99016.00
2022-09-03T16:12:53.789Z,99021.00
2022-09-03T16:14:35.662Z,99020.00
2022-09-03T16:16:14.752Z,99017.00
2022-09-03T16:18:02.672Z,99022.00
2022-09-03T16:19:47.844Z,99021.00
2022-09-03T16:21:31.250Z,99028.00
2022-09-03T16:23:13.998Z,99024.00
2022-09-03T16:24:56.525Z,99024.00
2022-09-03T16:26:36.490Z,99014.00
2022-09-03T16:28:17.873Z,99019.00
2022-09-03T16:30:03.111Z,99024.00
2022-09-03T16:32:00.728Z,99027.00
2022-09-03T16:33:48.867Z,99025.00
2022-09-03T16:35:41.416Z,99023.00
2022-09-03T16:37:29.982Z,99030.00
2022-09-03T16:39:15.291Z,99029.00
2022-09-03T16:40:57.859Z,99033.00
2022-09-03T16:42:42.776Z,99035.00
2022-09-03T16:44:28.200Z,99031.00
2022-09-03T16:46:21.940Z,99039.00
2022-09-03T16:48:26.024Z,99036.00
2022-09-03T16:50:19.062Z,99033.00
2022-09-03T16:51:58.747Z,99032.00
2022-09-03T16:53:59.775Z,99033.00
2022-09-03T16:55:54.638Z,99035.00
2022-09-03T16:57:54.298Z,99036.00
2022-09-03T17:00:00.233Z,99036.00
2022-09-03T17:02:02.523Z,99035.00
2022-09-03T17:04:25.004Z,99038.00
2022-09-03T17:06:35.323Z,99036.00
2022-09-03T17:08:25.829Z,99041.00
2022-09-03T17:10:10.702Z,99043.00
2022-09-03T17:12:02.788Z,99041.00
2022-09-03T17:14:00.483Z,99039.00
2022-09-03T17:15:43.776Z,99042.00
2022-09-03T17:17:36.157Z,99041.00
2022-09-03T17:19:22.007Z,99038.00
2022-09-03T17:21:13.971Z,99034.00
2022-09-03T17:23:09.603Z,99039.00
2022-09-03T17:24:54.796Z,99049.00
2022-09-03T17:26:39.007Z,99047.00
2022-09-03T17:28:31.324Z,99041.00
2022-09-03T17:30:10.331Z,99050.00
2022-09-03T17:31:55.129Z,99056.00
2022-09-03T17:33:55.715Z,99055.00
2022-09-03T17:35:42.955Z,99053.00
2022-09-03T17:37:34.774Z,99050.00
2022-09-03T17:39:49.619Z,99050.00
2022-09-03T17:41:37.309Z,99060.00
2022-09-03T17:43:24.268Z,99053.00
2022-09-03T17:45:16.213Z,99060.00
2022-09-03T17:47:08.534Z,99063.00
2022-09-03T17:48:54.511Z,99063.00
2022-09-03T17:50:36.516Z,99064.00
2022-09-03T17:52:27.447Z,99059.00
2022-09-03T17:54:09.651Z,99064.00
2022-09-03T17:55:54.449Z,99066.00
2022-09-03T17:57:33.206Z,99071.00
2022-09-03T17:59:17.562Z,99078.00
2022-09-03T18:01:02.287Z,99083.00
2022-09-03T18:02:43.379Z,99080.00
2022-09-03T18:04:35.076Z,99079.00
2022-09-03T18:06:20.367Z,99087.00
2022-09-03T18:08:03.773Z,99086.00
2022-09-03T18:09:47.107Z,99091.00
2022-09-03T18:11:35.939Z,99097.00
2022-09-03T18:13:25.983Z,99092.00
2022-09-03T18:15:10.517Z,99101.00
2022-09-03T18:16:53.905Z,99102.00
2022-09-03T18:18:30.792Z,99104.00
2022-09-03T18:20:27.974Z,99106.00
2022-09-03T18:22:24.291Z,99102.00
2022-09-03T18:24:26.316Z,99103.00
2022-09-03T18:26:24.826Z,99103.00
2022-09-03T18:28:24.070Z,99115.00
2022-09-03T18:30:24.319Z,99110.00
2022-09-03T18:32:15.412Z,99108.00
2022-09-03T18:34:06.556Z,99117.00
2022-09-03T18:35:57.530Z,99121.00
2022-09-03T18:37:48.512Z,99128.00
2022-09-03T18:39:47.352Z,99130.00
2022-09-03T18:42:05.527Z,99133.00
2022-09-03T18:44:08.522Z,99137.00
2022-09-03T18:48:32.404Z,99138.00
2022-09-03T18:50:37.184Z,99141.00
2022-09-03T18:52:37.180Z,99141.00
2022-09-03T18:55:07.227Z,99146.00
2022-09-03T18:57:03.759Z,99139.00
2022-09-03T18:59:14.439Z,99145.00
2022-09-03T19:01:20.737Z,99154.00
2022-09-03T19:03:52.363Z,99147.00
2022-09-03T19:05:53.652Z,99149.00
2022-09-03T19:07:59.945Z,99156.00
2022-09-03T19:10:12.548Z,99150.00
2022-09-03T19:12:31.345Z,99150.00
2022-09-03T19:14:37.553Z,99152.00
2022-09-03T19:16:35.577Z,99158.00
2022-09-03T19:18:45.302Z,99152.00
2022-09-03T19:20:45.171Z,99162.00
2022-09-03T19:22:47.799Z,99157.00
2022-09-03T19:24:47.187Z,99153.00
2022-09-03T19:26:52.610Z,99166.00
2022-09-03T19:29:00.857Z,99163.00
2022-09-03T19:31:14.545Z,99163.00
2022-09-03T19:33:22.294Z,99167.00
2022-09-03T19:35:33.014Z,99171.00
2022-09-03T19:37:36.911Z,99171.00
2022-09-03T19:39:53.486Z,99166.00
2022-09-03T19:41:53.447Z,99176.00
2022-09-03T19:43:54.819Z,99178.00
2022-09-03T19:46:05.475Z,99178.00
2022-09-03T19:48:13.725Z,99173.00
2022-09-03T19:50:21.763Z,99187.00
2022-09-03T19:52:25.119Z,99183.00
2022-09-03T19:54:22.345Z,99191.00
2022-09-03T19:56:15.942Z,99188.00
2022-09-03T19:58:39.168Z,99191.00
2022-09-03T20:00:36.535Z,99188.00
2022-09-03T20:02:30.181Z,99190.00
2022-09-03T20:04:31.866Z,99190.00
2022-09-03T20:06:26.030Z,99190.00
2022-09-03T20:08:19.335Z,99200.00
2022-09-03T20:10:12.192Z,99198.00
2022-09-03T20:11:48.951Z,99205.00
2022-09-03T20:13:22.523Z,99201.00
2022-09-03T20:14:55.143Z,99209.00
2022-09-03T20:16:37.031Z,99205.00
2022-09-03T20:18:24.504Z,99213.00
2022-09-03T20:20:15.219Z,99208.00
2022-09-03T20:21:56.343Z,99214.00
2022-09-03T20:23:37.342Z,99214.00
2022-09-03T20:25:30.330Z,99213.00
2022-09-03T20:27:19.111Z,99208.00
2022-09-03T20:29:20.543Z,99212.00
2022-09-03T20:31:03.895Z,99217.00
2022-09-03T20:33:16.255Z,99218.00